createdAt,value
2018-10-16T00:00:55.352Z,57.50
2018-10-16T00:04:59.090Z,57.40
2018-10-16T00:09:02.901Z,57.10
2018-10-16T00:13:07.357Z,57.20
2018-10-16T00:17:11.093Z,57.10
2018-10-16T00:21:14.881Z,58.10
2018-10-16T00:25:18.725Z,58.30
2018-10-16T00:29:22.816Z,57.70
2018-10-16T00:33:26.624Z,57.50
2018-10-16T00:37:30.426Z,57.50
2018-10-16T00:41:34.176Z,57.40
2018-10-16T00:45:37.953Z,57.40
2018-10-16T00:49:41.694Z,57.30
2018-10-16T00:53:45.483Z,57.30
2018-10-16T00:57:49.257Z,57.40
2018-10-16T01:01:53.022Z,57.50
2018-10-16T01:05:56.780Z,57.50
2018-10-16T01:10:00.565Z,57.50
2018-10-16T01:14:04.382Z,57.60
2018-10-16T01:18:08.172Z,57.60
2018-10-16T01:22:12.075Z,57.70
2018-10-16T01:26:16.313Z,57.60
2018-10-16T01:30:20.069Z,57.60
2018-10-16T01:34:23.804Z,57.70
2018-10-16T01:38:27.586Z,57.60
2018-10-16T01:42:31.313Z,57.80
2018-10-16T01:46:35.073Z,57.80
2018-10-16T01:50:38.816Z,57.70
2018-10-16T01:54:42.569Z,57.70
2018-10-16T01:58:46.414Z,57.80
2018-10-16T02:02:50.157Z,57.70
2018-10-16T02:06:53.922Z,57.80
2018-10-16T02:10:57.768Z,57.90
2018-10-16T02:15:01.530Z,57.90
2018-10-16T02:19:05.528Z,58.00
2018-10-16T02:23:09.289Z,58.60
2018-10-16T02:27:13.133Z,58.00
2018-10-16T02:31:16.935Z,58.00
2018-10-16T02:35:20.754Z,58.90
2018-10-16T02:39:24.591Z,58.50
2018-10-16T02:43:28.332Z,58.70
2018-10-16T02:47:32.085Z,58.50
2018-10-16T02:51:35.973Z,58.20
2018-10-16T02:55:39.734Z,58.30
2018-10-16T02:59:43.492Z,59.60
2018-10-16T03:03:47.272Z,60.30
2018-10-16T03:07:51.020Z,58.70
2018-10-16T03:11:54.779Z,58.90
2018-10-16T03:15:58.509Z,59.10
2018-10-16T03:20:02.311Z,58.90
2018-10-16T03:24:07.308Z,59.10
2018-10-16T03:28:11.033Z,60.10
2018-10-16T03:32:14.813Z,59.30
2018-10-16T03:36:18.878Z,59.70
2018-10-16T03:40:22.663Z,59.10
2018-10-16T03:44:26.413Z,59.10
2018-10-16T03:48:30.148Z,58.90
2018-10-16T03:52:33.944Z,58.80
2018-10-16T03:56:37.716Z,58.90
2018-10-16T04:00:41.598Z,58.90
2018-10-16T04:04:45.619Z,59.80
2018-10-16T04:08:49.973Z,59.70
2018-10-16T04:12:53.798Z,59.30
2018-10-16T04:16:57.607Z,59.20
2018-10-16T04:21:01.413Z,59.60
2018-10-16T04:25:05.192Z,58.90
2018-10-16T04:29:09.688Z,59.00
2018-10-16T04:33:13.796Z,59.20
2018-10-16T04:37:17.559Z,59.10
2018-10-16T04:41:21.349Z,59.10
2018-10-16T04:45:25.063Z,59.10
2018-10-16T04:49:28.802Z,59.20
2018-10-16T04:53:32.640Z,59.20
2018-10-16T04:57:36.589Z,59.30
2018-10-16T05:01:40.349Z,59.20
2018-10-16T05:05:44.109Z,59.10
2018-10-16T05:09:47.876Z,59.30
2018-10-16T05:13:51.667Z,59.20
2018-10-16T05:17:55.792Z,59.10
2018-10-16T05:21:59.586Z,59.10
2018-10-16T05:26:03.309Z,59.00
2018-10-16T05:30:07.133Z,59.10
2018-10-16T05:34:10.861Z,59.60
2018-10-16T05:38:14.628Z,59.10
2018-10-16T05:42:18.404Z,59.30
2018-10-16T05:46:22.080Z,59.00
2018-10-16T05:50:25.860Z,59.10
2018-10-16T05:54:29.636Z,59.30
2018-10-16T05:58:33.831Z,59.70
2018-10-16T06:02:37.596Z,59.10
2018-10-16T06:06:41.315Z,59.40
2018-10-16T06:10:45.302Z,59.40
2018-10-16T06:14:49.066Z,59.30
2018-10-16T06:18:52.803Z,59.30
2018-10-16T06:22:56.546Z,59.50
2018-10-16T06:27:00.285Z,59.40
2018-10-16T06:31:04.049Z,59.50
2018-10-16T06:35:08.600Z,60.40
2018-10-16T06:39:12.349Z,60.50
2018-10-16T06:43:16.209Z,59.90
2018-10-16T06:47:19.993Z,59.90
2018-10-16T06:51:23.745Z,60.00
2018-10-16T06:55:27.484Z,59.80
2018-10-16T06:59:31.220Z,60.00
2018-10-16T07:03:34.953Z,62.60
2018-10-16T07:07:38.637Z,64.00
2018-10-16T07:11:42.366Z,62.00
2018-10-16T07:15:55.231Z,61.10
2018-10-16T07:19:59.894Z,61.10
2018-10-16T07:24:03.774Z,61.60
2018-10-16T07:28:07.423Z,63.30
2018-10-16T07:32:11.148Z,61.80
2018-10-16T07:36:14.973Z,60.90
2018-10-16T07:40:18.721Z,60.50
2018-10-16T07:44:22.466Z,60.20
2018-10-16T07:48:26.254Z,60.30
2018-10-16T07:52:29.938Z,60.00
2018-10-16T07:56:33.701Z,60.00
2018-10-16T08:00:37.457Z,60.10
2018-10-16T08:04:41.189Z,60.10
2018-10-16T08:08:44.926Z,60.20
2018-10-16T08:12:48.669Z,60.20
2018-10-16T08:16:52.471Z,61.00
2018-10-16T08:20:56.221Z,62.70
2018-10-16T08:24:59.940Z,61.70
2018-10-16T08:29:03.777Z,62.30
2018-10-16T08:33:07.734Z,61.50
2018-10-16T08:37:12.663Z,61.30
2018-10-16T08:41:16.404Z,64.30
2018-10-16T08:45:31.412Z,65.40
2018-10-16T08:49:46.247Z,62.40
2018-10-16T08:53:49.970Z,63.90
2018-10-16T08:57:53.701Z,63.80
2018-10-16T09:01:57.454Z,62.30
2018-10-16T09:06:01.222Z,62.10
2018-10-16T09:10:05.059Z,63.40
2018-10-16T09:14:08.857Z,61.60
2018-10-16T09:18:12.550Z,61.80
2018-10-16T09:22:16.297Z,62.40
2018-10-16T09:26:20.084Z,62.20
2018-10-16T09:30:23.843Z,61.60
2018-10-16T09:34:27.563Z,61.50
2018-10-16T09:38:31.384Z,61.20
2018-10-16T09:42:35.135Z,61.40
2018-10-16T09:46:39.264Z,61.60
2018-10-16T09:50:43.022Z,61.60
2018-10-16T09:54:46.712Z,61.40
2018-10-16T09:58:50.454Z,61.20
2018-10-16T10:02:54.183Z,61.90
2018-10-16T10:06:57.937Z,61.60
2018-10-16T10:11:02.481Z,61.20
2018-10-16T10:15:06.667Z,61.70
2018-10-16T10:19:10.770Z,61.30
2018-10-16T10:23:14.554Z,61.30
2018-10-16T10:27:18.792Z,60.50
2018-10-16T10:31:22.533Z,61.60
2018-10-16T10:35:26.259Z,61.50
2018-10-16T10:39:30.059Z,61.50
2018-10-16T10:43:33.769Z,61.50
2018-10-16T10:47:37.920Z,61.40
2018-10-16T10:51:41.885Z,61.20
2018-10-16T10:55:45.452Z,61.60
2018-10-16T10:59:49.261Z,61.40
2018-10-16T11:03:53.008Z,61.20
2018-10-16T11:07:56.813Z,61.40
2018-10-16T11:12:00.595Z,61.30
2018-10-16T11:16:04.382Z,61.40
2018-10-16T11:20:09.892Z,61.50
2018-10-16T11:24:13.625Z,62.10
2018-10-16T11:28:17.358Z,61.60
2018-10-16T11:32:21.090Z,61.50
2018-10-16T11:36:24.872Z,61.20
2018-10-16T11:40:28.623Z,61.20
2018-10-16T11:44:32.393Z,61.80
2018-10-16T11:48:36.150Z,61.00
2018-10-16T11:52:40.142Z,60.60
2018-10-16T11:56:43.853Z,60.50
2018-10-16T12:00:47.616Z,60.50
2018-10-16T12:04:51.944Z,60.60
2018-10-16T12:08:55.693Z,60.70
2018-10-16T12:12:59.485Z,60.60
2018-10-16T12:17:08.425Z,60.60
2018-10-16T12:21:15.490Z,60.70
2018-10-16T12:25:19.283Z,60.50
2018-10-16T12:29:23.102Z,61.00
2018-10-16T12:33:26.853Z,60.90
2018-10-16T12:37:30.596Z,60.70
2018-10-16T12:41:34.349Z,60.90
2018-10-16T12:45:38.101Z,60.80
2018-10-16T12:49:41.903Z,60.80
2018-10-16T12:53:45.677Z,60.80
2018-10-16T12:57:49.448Z,60.20
2018-10-16T13:01:53.243Z,60.60
2018-10-16T13:05:56.973Z,60.80
2018-10-16T13:10:00.746Z,60.70
2018-10-16T13:14:04.694Z,60.90
2018-10-16T13:18:08.443Z,60.90
2018-10-16T13:22:12.285Z,62.60
2018-10-16T13:26:16.018Z,62.70
2018-10-16T13:30:20.488Z,62.60
2018-10-16T13:34:24.214Z,63.40
2018-10-16T13:38:27.992Z,61.80
2018-10-16T13:42:31.965Z,61.90
2018-10-16T13:46:35.664Z,61.80
2018-10-16T13:50:39.392Z,61.30
2018-10-16T13:54:43.192Z,61.20
2018-10-16T13:58:47.026Z,61.20
2018-10-16T14:02:51.949Z,62.40
2018-10-16T14:06:55.712Z,63.20
2018-10-16T14:10:59.442Z,63.30
2018-10-16T14:15:03.171Z,62.40
2018-10-16T14:19:06.947Z,62.70
2018-10-16T14:23:10.678Z,63.90
2018-10-16T14:27:14.477Z,62.90
2018-10-16T14:31:18.264Z,64.20
2018-10-16T14:35:22.875Z,63.50
2018-10-16T14:39:26.614Z,64.20
2018-10-16T14:43:30.600Z,63.90
2018-10-16T14:47:34.433Z,63.20
2018-10-16T14:51:38.161Z,63.00
2018-10-16T14:55:41.890Z,62.80
2018-10-16T14:59:45.590Z,63.80
2018-10-16T15:03:49.355Z,63.40
2018-10-16T15:07:53.105Z,62.70
2018-10-16T15:11:56.893Z,64.90
2018-10-16T15:16:00.708Z,63.60
2018-10-16T15:20:04.658Z,63.70
2018-10-16T15:24:08.484Z,63.40
2018-10-16T15:28:12.238Z,63.20
2018-10-16T15:32:16.326Z,63.50
2018-10-16T15:36:20.101Z,64.00
2018-10-16T15:40:23.809Z,65.10
2018-10-16T15:44:27.548Z,65.40
2018-10-16T15:48:31.311Z,64.30
2018-10-16T15:52:35.075Z,63.60
2018-10-16T15:56:38.876Z,63.20
2018-10-16T16:00:42.569Z,63.50
2018-10-16T16:04:46.363Z,63.90
2018-10-16T16:08:50.130Z,63.60
2018-10-16T16:12:53.851Z,64.10
2018-10-16T16:16:57.736Z,63.10
2018-10-16T16:21:01.485Z,63.40
2018-10-16T16:25:06.597Z,63.10
2018-10-16T16:29:10.316Z,62.90
2018-10-16T16:33:14.110Z,62.90
2018-10-16T16:37:17.828Z,63.10
2018-10-16T16:41:21.615Z,62.80
2018-10-16T16:45:25.377Z,63.00
2018-10-16T16:49:29.174Z,63.40
2018-10-16T16:53:32.897Z,62.80
2018-10-16T16:57:36.600Z,62.80
2018-10-16T17:01:40.353Z,62.80
2018-10-16T17:05:44.164Z,62.90
2018-10-16T17:09:48.004Z,62.70
2018-10-16T17:13:51.740Z,62.70
2018-10-16T17:17:55.528Z,63.40
2018-10-16T17:21:59.288Z,63.60
2018-10-16T17:26:03.370Z,63.80
2018-10-16T17:30:09.561Z,63.70
2018-10-16T17:34:13.355Z,65.00
2018-10-16T17:38:17.121Z,64.00
2018-10-16T17:42:20.875Z,63.80
2018-10-16T17:46:24.644Z,63.70
2018-10-16T17:50:28.373Z,63.80
2018-10-16T17:54:32.234Z,63.60
2018-10-16T17:58:36.016Z,63.60
2018-10-16T18:02:39.793Z,63.50
2018-10-16T18:06:43.549Z,64.30
2018-10-16T18:10:47.287Z,63.60
2018-10-16T18:14:51.028Z,63.50
2018-10-16T18:18:54.793Z,63.50
2018-10-16T18:22:58.549Z,64.90
2018-10-16T18:27:02.369Z,63.70
2018-10-16T18:31:06.603Z,63.50
2018-10-16T18:35:10.866Z,63.60
2018-10-16T18:39:14.834Z,64.00
2018-10-16T18:43:18.393Z,64.30
2018-10-16T18:47:22.209Z,64.30
2018-10-16T18:51:25.965Z,64.50
2018-10-16T18:55:29.722Z,63.80
2018-10-16T18:59:33.482Z,63.70
2018-10-16T19:03:37.225Z,63.60
2018-10-16T19:07:41.358Z,63.70
2018-10-16T19:11:45.069Z,63.70
2018-10-16T19:15:48.786Z,63.80
2018-10-16T19:19:52.737Z,64.60
2018-10-16T19:23:56.509Z,63.90
2018-10-16T19:28:00.277Z,63.70
2018-10-16T19:32:04.153Z,63.90
2018-10-16T19:36:07.917Z,64.30
2018-10-16T19:40:12.042Z,67.20
2018-10-16T19:44:15.811Z,64.50
2018-10-16T19:48:19.693Z,63.90
2018-10-16T19:52:23.551Z,63.90
2018-10-16T19:56:27.307Z,63.80
2018-10-16T20:00:31.188Z,63.80
2018-10-16T20:04:34.972Z,65.40
2018-10-16T20:08:38.807Z,65.90
2018-10-16T20:12:42.656Z,64.20
2018-10-16T20:16:46.433Z,64.40
2018-10-16T20:20:50.282Z,64.00
2018-10-16T20:24:54.126Z,65.90
2018-10-16T20:28:57.868Z,64.20
2018-10-16T20:33:01.614Z,64.00
2018-10-16T20:37:05.445Z,64.50
2018-10-16T20:41:09.268Z,64.00
2018-10-16T20:45:13.013Z,63.90
2018-10-16T20:49:16.763Z,63.80
2018-10-16T20:53:20.550Z,63.90
2018-10-16T20:57:24.375Z,63.80
2018-10-16T21:01:28.158Z,63.90
2018-10-16T21:05:31.994Z,64.20
2018-10-16T21:09:35.710Z,64.60
2018-10-16T21:13:39.472Z,64.10
2018-10-16T21:17:43.254Z,63.90
2018-10-16T21:21:46.944Z,65.10
2018-10-16T21:25:50.787Z,64.70
2018-10-16T21:29:54.546Z,65.00
2018-10-16T21:33:58.268Z,64.30
2018-10-16T21:38:02.048Z,64.50
2018-10-16T21:42:05.883Z,66.00
2018-10-16T21:46:09.642Z,67.10
2018-10-16T21:50:13.441Z,66.20
2018-10-16T21:54:17.190Z,65.40
2018-10-16T21:58:20.987Z,64.90
2018-10-16T22:02:30.101Z,65.40
2018-10-16T22:06:33.861Z,65.30
2018-10-16T22:10:37.619Z,65.70
2018-10-16T22:14:41.424Z,65.60
2018-10-16T22:18:45.193Z,65.20
2018-10-16T22:22:48.981Z,65.70
2018-10-16T22:26:52.781Z,65.90
2018-10-16T22:30:56.632Z,66.00
2018-10-16T22:35:00.421Z,65.70
2018-10-16T22:39:05.595Z,65.70
2018-10-16T22:43:09.466Z,65.40
2018-10-16T22:47:13.219Z,66.10
2018-10-16T22:51:16.956Z,65.40
2018-10-16T22:55:20.728Z,65.30
2018-10-16T22:59:24.558Z,65.50
2018-10-16T23:03:28.289Z,66.20
2018-10-16T23:07:32.045Z,65.60
2018-10-16T23:11:35.965Z,65.30
2018-10-16T23:15:39.695Z,65.10
2018-10-16T23:19:43.469Z,65.00
2018-10-16T23:23:47.187Z,65.30
2018-10-16T23:27:50.936Z,65.10
2018-10-16T23:31:54.688Z,64.90
2018-10-16T23:35:58.431Z,65.10
2018-10-16T23:40:02.219Z,65.00
2018-10-16T23:44:06.157Z,65.10
2018-10-16T23:48:09.946Z,65.10
2018-10-16T23:52:13.684Z,65.10
2018-10-16T23:56:17.472Z,65.00
